• Join FlightAware (Why Join?)
  • Login
  • US Flag 
08:05PM EDT


 

Airport Tracker/Info


-or-


 

Live Flight TrackerFlight Track Log ✈ N30GT ✈ 18-Jun-2013 ✈ KOCF - KGMU

Flight Track Log - Related Links

Times and Time Zones

All times are in EDT time to prevent confusion due to time zone crossing. See the N30GT flight status page for this flight to view local times or setup timezone preferences in your user account.

Time Position Orientation Groundspeed Altitude Reporting Facility
EDT Latitude Longitude Course Direction KTS MPH feet Rate Location/Type
08:22PM 29.1811 -82.2006 360° North 188 216 3,700  Level Jacksonville Center
08:25PM 29.3211 -82.2019 360° North 193 222 8,600 1,680 Climbing Jacksonville Center
08:26PM 29.3753 -82.2014 North 193 222 10,300 1,620 Climbing Jacksonville Center
08:27PM 29.4294 -82.2033 358° North 193 222 11,900 1,500 Climbing Jacksonville Center
08:28PM 29.4797 -82.2056 358° North 193 222 13,300 1,320 Climbing Jacksonville Center
08:29PM 29.5319 -82.2075 358° North 188 216 14,600 1,200 Climbing Jacksonville Center
08:30PM 29.5842 -82.2072 360° North 188 216 15,700 1,080 Climbing Jacksonville Center
08:31PM 29.6383 -82.2092 358° North 188 216 16,800 1,080 Climbing Jacksonville Center
08:32PM 29.6883 -82.2089 360° North 188 216 17,900 960 Climbing Jacksonville Center
08:33PM 29.7406 -82.2108 358° North 188 216 18,800 960 Climbing Jacksonville Center
08:34PM 29.7969 -82.2153 356° North 183 211 19,900 900 Climbing Jacksonville Center
08:35PM 29.8492 -82.2172 358° North 183 211 20,600 660 Climbing Jacksonville Center
08:36PM 29.9014 -82.2194 358° North 178 205 21,300 660 Climbing Jacksonville Center
08:37PM 29.9536 -82.2189 North 178 205 22,000 300 Climbing Jacksonville Center
08:38PM 30.0100 -82.2208 358° North 183 211 22,000  Level Jacksonville Center
08:39PM 30.0664 -82.2181 North 200 230 22,000  Level Jacksonville Center
08:40PM 30.1333 -82.2200 359° North 220 253 22,000  Level Jacksonville Center
08:41PM 30.2000 -82.2219 359° North 232 267 22,000  Level Jacksonville Center
08:42PM 30.2669 -82.2239 359° North 238 274 22,000  Level Jacksonville Center
08:43PM 30.3358 -82.2258 359° North 238 274 22,000  Level Jacksonville Center
08:44PM 30.4025 -82.2278 359° North 238 274 22,000  Level Jacksonville Center
08:45PM 30.4714 -82.2297 359° North 238 274 22,000  Level Jacksonville Center
08:46PM 30.5403 -82.2294 360° North 238 274 22,000  Level Jacksonville Center
08:47PM 30.6072 -82.2361 355° North 238 274 22,000  Level Jacksonville Center
08:48PM 30.6761 -82.2381 359° North 238 274 22,000  Level Jacksonville Center
08:49PM 30.7431 -82.2400 359° North 238 274 22,000  Level Jacksonville Center
08:50PM 30.8097 -82.2419 359° North 233 268 22,000  Level Jacksonville Center
08:51PM 30.8767 -82.2439 359° North 233 268 22,000  Level Jacksonville Center
08:52PM 30.9433 -82.2458 359° North 233 268 22,000  Level Jacksonville Center
08:53PM 31.0103 -82.2478 359° North 233 268 22,000  Level Jacksonville Center
08:54PM 31.0772 -82.2497 359° North 233 268 22,000  Level Jacksonville Center
08:55PM 31.1419 -82.2517 359° North 233 268 22,000  Level Jacksonville Center
08:56PM 31.2086 -82.2514 360° North 233 268 22,000  Level Jacksonville Center
08:57PM 31.2756 -82.2558 357° North 233 268 22,000  Level Jacksonville Center
08:58PM 31.3422 -82.2578 359° North 233 268 22,000  Level Jacksonville Center
08:59PM 31.4092 -82.2572 360° North 238 274 22,000  Level Jacksonville Center
09:00PM 31.4758 -82.2592 359° North 233 268 22,000  Level Jacksonville Center
09:01PM 31.5428 -82.2611 359° North 233 268 22,000  Level Jacksonville Center
09:02PM 31.6097 -82.2656 357° North 233 268 22,000  Level Jacksonville Center
09:03PM 31.6828 -82.2653 360° North 233 268 22,000  Level Jacksonville Center
09:04PM 31.7433 -82.2647 360° North 238 274 22,000  Level Jacksonville Center
09:05PM 31.8183 -82.2692 357° North 233 268 22,000  Level Jacksonville Center
09:06PM 31.8853 -82.2711 359° North 233 268 22,000  Level Jacksonville Center
09:07PM 31.9458 -82.2731 358° North 233 268 22,000  Level Jacksonville Center
09:08PM 32.0208 -82.2750 359° North 239 275 22,000  Level Jacksonville Center
09:10PM 32.1806 -82.2794 359° North 236 272 22,000  Level Atlanta Center
09:11PM 32.2375 -82.3078 337° Northwest 236 272 22,000  Level Atlanta Center
09:12PM 32.2656 -82.3686 299° West 211 243 22,000  Level Atlanta Center
09:13PM 32.3122 -82.4339 310° West 220 253 22,000  Level Atlanta Center
09:14PM 32.3767 -82.4231 North 207 238 22,000  Level Atlanta Center
09:15PM 32.4456 -82.4217 North 225 259 22,000  Level Atlanta Center
09:16PM 32.5167 -82.4206 North 237 273 22,000  Level Atlanta Center
09:17PM 32.5856 -82.4217 359° North 248 285 22,000  Level Atlanta Center
09:18PM 32.6542 -82.4181 North 248 285 22,000  Level Atlanta Center
09:19PM 32.7253 -82.4142 North 254 292 22,000  Level Atlanta Center
09:20PM 32.7942 -82.4081 North 249 287 22,000  Level Atlanta Center
09:21PM 32.8631 -82.4117 357° North 249 287 22,000  Level Atlanta Center
09:22PM 32.9339 -82.4053 North 249 287 22,000  Level Atlanta Center
09:23PM 33.0006 -82.4042 North 249 287 22,000  Level Atlanta Center
09:24PM 33.0778 -82.4025 North 249 287 22,000  Level Atlanta Center
09:25PM 33.1447 -82.4014 North 249 287 22,000  Level Atlanta Center
09:26PM 33.2136 -82.4000 North 249 287 22,000  Level Atlanta Center
09:27PM 33.2844 -82.3986 North 249 287 22,000  Level Atlanta Center
09:28PM 33.3469 -82.3975 North 249 287 22,000 -60 Level Atlanta Center
09:29PM 33.4181 -82.3961 North 236 272 21,900 -600 Descending Atlanta Center
09:30PM 33.4931 -82.3922 North 258 297 20,900 -900 Descending Atlanta Center
09:31PM 33.5683 -82.3908 North 269 310 20,100 -840 Descending Atlanta Center
09:32PM 33.6453 -82.3844 North 276 318 19,300 -780 Descending Atlanta Center
09:33PM 33.7164 -82.3881 358° North 276 318 18,600 -780 Descending Atlanta Center
09:34PM 33.7936 -82.3842 North 280 322 17,800 -1,200 Descending Atlanta Center
09:35PM 33.8667 -82.3825 North 275 316 16,200 -1,620 Descending Atlanta Center
09:36PM 33.9542 -82.3783 North 286 329 14,600 -1,500 Descending Atlanta Center
09:37PM 34.0250 -82.3769 North 273 314 13,200 -1,500 Descending Atlanta Center
09:38PM 34.1022 -82.3756 North 267 307 11,600 -1,140 Descending Atlanta Center
09:39PM 34.1753 -82.3717 North 273 314 11,000 -840 Descending Atlanta Center
09:40PM 34.2461 -82.3703 North 263 303 10,000 -1,200 Descending Atlanta Center
09:41PM 34.3233 -82.3661 North 263 303 8,600 -1,260 Descending Atlanta Center
09:42PM 34.4069 -82.3644 North 269 310 7,500 -840 Descending Atlanta Center
09:43PM 34.4756 -82.3606 North 262 302 7,000 -960 Descending Atlanta Center
09:44PM 34.5444 -82.3592 North 249 287 5,600 -1,380 Descending Atlanta Center
09:45PM 34.6092 -82.3478 North 238 274 4,300 -1,260 Descending Atlanta Center
09:46PM 34.6547 -82.3369 11° North 203 234 3,100 -1,200 Descending Atlanta Center
09:48PM 34.7474 -82.3500 North  Level FlightAware Approximate
09:55PM 34.8333 -82.3500 North  Level FlightAware Approximate
09:56PM 34.8479 -82.3500 North  Level Estimated
09:57PM 34.8479 -82.3500 North  Level Estimated
09:58PM 34.8479 -82.3500 North  Level Estimated